Time;durP1;ratioP1;P1;durP2;ratioP2;P2;SDS_P1;SDS_P2;PMS_P1;PMS_P2;Temp;Humidity;BMP_temperature;BMP_pressure;BME280_temperature;BME280_humidity;BME280_pressure;Samples;Min_cycle;Max_cycle;Signal;HPM_P1;HPM_P2
2023/06/10 00:02:21;;;;;;;17.00;11.50;;;;;;;-128.00;-1.00;-1.00;18510;296;7504152;-33
2023/06/10 00:04:47;;;;;;;11.00;8.40;;;;;;;-128.00;-1.00;-1.00;18457;296;7506885;-32
2023/06/10 00:07:13;;;;;;;8.90;8.00;;;;;;;-128.00;-1.00;-1.00;18499;296;7504873;-36
2023/06/10 00:09:39;;;;;;;12.80;11.40;;;;;;;-128.00;-1.00;-1.00;18881;287;7504648;-36
2023/06/10 00:12:06;;;;;;;21.30;12.30;;;;;;;-128.00;-1.00;-1.00;18840;296;7504941;-36
2023/06/10 00:14:33;;;;;;;14.30;11.00;;;;;;;-128.00;-1.00;-1.00;18463;287;7506211;-36
2023/06/10 00:16:59;;;;;;;14.30;9.40;;;;;;;-128.00;-1.00;-1.00;18465;288;7505144;-33
2023/06/10 00:19:25;;;;;;;9.30;7.80;;;;;;;-128.00;-1.00;-1.00;18498;295;7505811;-36
2023/06/10 00:21:52;;;;;;;16.00;12.40;;;;;;;-128.00;-1.00;-1.00;18466;287;7504349;-33
2023/06/10 00:24:18;;;;;;;17.30;12.40;;;;;;;-128.00;-1.00;-1.00;18476;312;7504773;-35
2023/06/10 00:26:44;;;;;;;23.60;15.40;;;;;;;-128.00;-1.00;-1.00;18889;300;7504972;-36
2023/06/10 00:29:10;;;;;;;11.30;10.10;;;;;;;-128.00;-1.00;-1.00;18473;295;7505756;-33
2023/06/10 00:31:37;;;;;;;9.60;8.80;;;;;;;-128.00;-1.00;-1.00;18446;295;7506093;-32
2023/06/10 00:34:02;;;;;;;19.30;12.80;;;;;;;-128.00;-1.00;-1.00;18466;288;7506426;-32
2023/06/10 00:36:29;;;;;;;16.70;13.30;;;;;;;-128.00;-1.00;-1.00;18923;295;7505891;-35
2023/06/10 01:18:30;;;;;;;56.80;23.80;;;;;;;-99.45;19.20;19835.05;19581;296;8045181;-31
2023/06/10 01:20:56;;;;;;;26.60;19.50;;;;;;;-128.00;-1.00;-1.00;18201;296;7504951;-32
2023/06/10 01:23:21;;;;;;;30.30;23.00;;;;;;;-128.00;-1.00;-1.00;18481;296;7505079;-31
2023/06/10 01:25:55;;;;;;;28.90;20.20;;;;;;;-128.00;-1.00;-1.00;18444;288;7505805;-31
2023/06/10 01:28:30;;;;;;;30.00;21.50;;;;;;;-128.00;-1.00;-1.00;18471;296;7504649;-36
2023/06/10 01:31:13;;;;;;;20.60;16.70;;;;;;;-128.00;-1.00;-1.00;18490;288;7504546;-33
2023/06/10 01:33:42;;;;;;;18.20;15.10;;;;;;;-128.00;-1.00;-1.00;18471;296;7506243;-36
2023/06/10 01:36:08;;;;;;;26.00;19.00;;;;;;;-128.00;-1.00;-1.00;18463;296;7505845;-33
2023/06/10 01:38:38;;;;;;;22.70;16.30;;;;;;;-128.00;-1.00;-1.00;18483;288;7504811;-33
2023/06/10 01:41:04;;;;;;;22.60;18.10;;;;;;;-128.00;-1.00;-1.00;18485;296;7504569;-33
2023/06/10 01:43:33;;;;;;;26.90;19.70;;;;;;;-128.00;-1.00;-1.00;18460;296;7504300;-33
2023/06/10 01:45:58;;;;;;;17.40;15.40;;;;;;;-128.00;-1.00;-1.00;18468;290;7505655;-36
2023/06/10 01:48:24;;;;;;;17.80;16.00;;;;;;;-128.00;-1.00;-1.00;18465;296;7505153;-32
2023/06/10 01:50:50;;;;;;;24.70;17.10;;;;;;;-128.00;-1.00;-1.00;18495;308;7506059;-36
2023/06/10 01:53:16;;;;;;;27.90;19.00;;;;;;;-128.00;-1.00;-1.00;18863;348;7505284;-33
2023/06/10 01:55:42;;;;;;;25.00;19.30;;;;;;;-128.00;-1.00;-1.00;18874;348;7504147;-32
2023/06/10 01:58:08;;;;;;;24.70;19.10;;;;;;;-128.00;-1.00;-1.00;18869;296;7506102;-35
2023/06/10 02:00:34;;;;;;;27.20;19.70;;;;;;;-128.00;-1.00;-1.00;18876;348;7504666;-33
2023/06/10 02:03:01;;;;;;;25.30;18.00;;;;;;;-128.00;-1.00;-1.00;18881;308;7505365;-35
2023/06/10 02:05:27;;;;;;;28.80;20.30;;;;;;;-128.00;-1.00;-1.00;18857;296;7504604;-35
2023/06/10 02:07:53;;;;;;;26.40;20.20;;;;;;;-128.00;-1.00;-1.00;18880;288;7505928;-35
2023/06/10 02:10:19;;;;;;;20.80;17.40;;;;;;;-128.00;-1.00;-1.00;18854;296;7504816;-35
2023/06/10 02:12:45;;;;;;;23.30;18.30;;;;;;;-128.00;-1.00;-1.00;18866;304;7505243;-33
2023/06/10 02:15:11;;;;;;;18.20;14.70;;;;;;;-128.00;-1.00;-1.00;18897;296;7504292;-35
2023/06/10 02:17:38;;;;;;;19.80;17.50;;;;;;;-128.00;-1.00;-1.00;18894;296;7505071;-36
2023/06/10 02:20:07;;;;;;;27.80;21.20;;;;;;;-128.00;-1.00;-1.00;18492;288;7505923;-36
2023/06/10 02:22:33;;;;;;;17.40;15.60;;;;;;;-128.00;-1.00;-1.00;18494;284;7504751;-33
2023/06/10 02:24:58;;;;;;;16.60;15.00;;;;;;;-128.00;-1.00;-1.00;18497;296;7505716;-36
2023/06/10 02:27:24;;;;;;;18.70;16.20;;;;;;;-128.00;-1.00;-1.00;18469;288;7506497;-36
2023/06/10 02:29:50;;;;;;;28.40;19.60;;;;;;;-128.00;-1.00;-1.00;18455;296;7505936;-33
2023/06/10 02:32:16;;;;;;;32.60;17.80;;;;;;;-128.00;-1.00;-1.00;18462;284;7505222;-36
2023/06/10 02:34:43;;;;;;;28.70;23.10;;;;;;;-128.00;-1.00;-1.00;18459;284;7504616;-34
2023/06/10 02:37:09;;;;;;;36.30;18.10;;;;;;;-128.00;-1.00;-1.00;18462;288;7504287;-35
2023/06/10 02:39:34;;;;;;;18.40;16.40;;;;;;;-128.00;-1.00;-1.00;18461;296;7505114;-31
2023/06/10 02:42:00;;;;;;;19.80;17.60;;;;;;;-128.00;-1.00;-1.00;18488;296;7506048;-34
2023/06/10 02:44:26;;;;;;;25.10;19.70;;;;;;;-128.00;-1.00;-1.00;18895;288;7504517;-32
2023/06/10 02:46:52;;;;;;;24.60;21.40;;;;;;;-128.00;-1.00;-1.00;18894;296;7505122;-37
2023/06/10 02:49:18;;;;;;;28.10;21.60;;;;;;;-128.00;-1.00;-1.00;18869;296;7505126;-33
2023/06/10 02:51:44;;;;;;;23.60;20.70;;;;;;;-128.00;-1.00;-1.00;18884;308;7504567;-34
2023/06/10 02:54:11;;;;;;;26.10;21.00;;;;;;;-128.00;-1.00;-1.00;18903;337;7505468;-36
2023/06/10 02:56:37;;;;;;;16.00;14.40;;;;;;;-128.00;-1.00;-1.00;18876;296;7504349;-33
2023/06/10 02:59:03;;;;;;;23.70;18.10;;;;;;;-128.00;-1.00;-1.00;18870;288;7504552;-35
2023/06/10 03:01:31;;;;;;;25.80;20.40;;;;;;;-128.00;-1.00;-1.00;18878;348;7504355;-34
2023/06/10 03:03:57;;;;;;;19.90;17.70;;;;;;;-128.00;-1.00;-1.00;18460;288;7506573;-33
2023/06/10 03:06:24;;;;;;;18.80;16.40;;;;;;;-128.00;-1.00;-1.00;18861;296;7505100;-33
2023/06/10 03:08:50;;;;;;;21.80;17.00;;;;;;;-128.00;-1.00;-1.00;18456;288;7504973;-32
2023/06/10 03:11:16;;;;;;;19.70;16.20;;;;;;;-128.00;-1.00;-1.00;18853;296;7504636;-31
2023/06/10 03:13:42;;;;;;;18.60;14.50;;;;;;;-128.00;-1.00;-1.00;18850;296;7504221;-33
2023/06/10 03:16:09;;;;;;;22.00;15.70;;;;;;;-128.00;-1.00;-1.00;18871;296;7504478;-36
2023/06/10 03:18:35;;;;;;;19.50;16.00;;;;;;;-128.00;-1.00;-1.00;18879;296;7504344;-32
2023/06/10 03:21:02;;;;;;;19.00;17.00;;;;;;;-128.00;-1.00;-1.00;18889;344;7505796;-35
2023/06/10 03:23:28;;;;;;;20.00;17.90;;;;;;;-128.00;-1.00;-1.00;18465;296;7506036;-31
2023/06/10 03:25:54;;;;;;;15.90;13.90;;;;;;;-128.00;-1.00;-1.00;18475;296;7504945;-32
2023/06/10 03:28:21;;;;;;;19.30;15.30;;;;;;;-128.00;-1.00;-1.00;18493;296;7505665;-31
2023/06/10 03:30:47;;;;;;;19.00;15.20;;;;;;;-128.00;-1.00;-1.00;18457;296;7505976;-32
2023/06/10 03:33:13;;;;;;;24.10;14.30;;;;;;;-128.00;-1.00;-1.00;18476;288;7504687;-31
2023/06/10 03:35:39;;;;;;;15.40;12.40;;;;;;;-128.00;-1.00;-1.00;18483;284;7506141;-38
2023/06/10 03:38:05;;;;;;;25.30;15.40;;;;;;;-128.00;-1.00;-1.00;18451;296;7506022;-31
2023/06/10 03:40:31;;;;;;;12.30;11.20;;;;;;;-128.00;-1.00;-1.00;18456;284;7504578;-37
2023/06/10 03:42:58;;;;;;;17.40;11.50;;;;;;;-128.00;-1.00;-1.00;18452;296;7504312;-35
2023/06/10 03:45:24;;;;;;;17.40;13.90;;;;;;;-128.00;-1.00;-1.00;18482;296;7504896;-36
2023/06/10 03:47:50;;;;;;;29.70;16.20;;;;;;;-128.00;-1.00;-1.00;18455;304;7505150;-36
2023/06/10 03:50:16;;;;;;;14.60;13.10;;;;;;;-128.00;-1.00;-1.00;18459;296;7504498;-35
2023/06/10 03:52:41;;;;;;;27.00;15.50;;;;;;;-128.00;-1.00;-1.00;18440;298;7505410;-36
2023/06/10 03:55:07;;;;;;;21.20;13.90;;;;;;;-128.00;-1.00;-1.00;18478;296;7504647;-32
2023/06/10 03:57:33;;;;;;;14.90;10.80;;;;;;;-128.00;-1.00;-1.00;18472;288;7505025;-32
2023/06/10 03:59:58;;;;;;;14.50;12.80;;;;;;;-128.00;-1.00;-1.00;18466;288;7504326;-36
2023/06/10 04:02:25;;;;;;;13.10;10.70;;;;;;;-128.00;-1.00;-1.00;18464;307;7504922;-35
2023/06/10 04:04:51;;;;;;;15.40;13.40;;;;;;;-128.00;-1.00;-1.00;18466;296;7503936;-31
2023/06/10 04:07:18;;;;;;;13.40;11.70;;;;;;;-128.00;-1.00;-1.00;18472;288;7506159;-31
2023/06/10 04:09:44;;;;;;;18.30;14.90;;;;;;;-128.00;-1.00;-1.00;18468;296;7504621;-31
2023/06/10 04:12:10;;;;;;;28.50;15.70;;;;;;;-128.00;-1.00;-1.00;18469;297;7505140;-35
2023/06/10 04:14:37;;;;;;;22.00;15.60;;;;;;;-128.00;-1.00;-1.00;18485;296;7504478;-32
2023/06/10 04:17:06;;;;;;;19.60;15.40;;;;;;;-128.00;-1.00;-1.00;18463;296;7504734;-36
2023/06/10 04:19:32;;;;;;;18.50;16.20;;;;;;;-128.00;-1.00;-1.00;18475;296;7504730;-32
2023/06/10 04:22:00;;;;;;;31.60;18.60;;;;;;;-128.00;-1.00;-1.00;18471;298;7506861;-36
2023/06/10 04:24:26;;;;;;;29.40;20.30;;;;;;;-128.00;-1.00;-1.00;18499;284;7504642;-36
2023/06/10 04:26:51;;;;;;;22.30;19.60;;;;;;;-128.00;-1.00;-1.00;18481;296;7504927;-36
2023/06/10 04:29:17;;;;;;;24.10;17.10;;;;;;;-128.00;-1.00;-1.00;18455;296;7504790;-32
2023/06/10 04:31:46;;;;;;;16.50;14.70;;;;;;;-128.00;-1.00;-1.00;18467;290;7504537;-35
2023/06/10 04:34:12;;;;;;;26.90;16.20;;;;;;;-128.00;-1.00;-1.00;18438;323;7506181;-31
2023/06/10 04:36:38;;;;;;;16.40;14.60;;;;;;;-128.00;-1.00;-1.00;18477;296;7505388;-31
2023/06/10 04:39:05;;;;;;;21.40;13.60;;;;;;;-128.00;-1.00;-1.00;18453;288;7506147;-32
2023/06/10 04:41:31;;;;;;;14.90;13.30;;;;;;;-128.00;-1.00;-1.00;18465;284;7506016;-32
2023/06/10 04:43:57;;;;;;;14.80;13.20;;;;;;;-128.00;-1.00;-1.00;18494;300;7506432;-36
2023/06/10 04:46:24;;;;;;;11.60;10.40;;;;;;;-128.00;-1.00;-1.00;18477;296;7504436;-32
2023/06/10 04:48:50;;;;;;;14.00;12.70;;;;;;;-128.00;-1.00;-1.00;18471;288;7504991;-35
2023/06/10 04:51:16;;;;;;;19.80;10.80;;;;;;;-128.00;-1.00;-1.00;18459;296;7504738;-32
2023/06/10 04:53:42;;;;;;;15.50;10.60;;;;;;;-128.00;-1.00;-1.00;18463;349;7504733;-35
2023/06/10 04:56:08;;;;;;;13.30;10.70;;;;;;;-128.00;-1.00;-1.00;18460;337;7504484;-35
2023/06/10 04:58:34;;;;;;;16.90;13.50;;;;;;;-128.00;-1.00;-1.00;18474;284;7504242;-32
2023/06/10 05:01:01;;;;;;;24.40;13.30;;;;;;;-128.00;-1.00;-1.00;18449;296;7504612;-32
2023/06/10 05:03:27;;;;;;;13.20;11.30;;;;;;;-128.00;-1.00;-1.00;18458;296;7504691;-36
2023/06/10 05:05:53;;;;;;;15.00;13.40;;;;;;;-128.00;-1.00;-1.00;18475;298;7504489;-36
2023/06/10 05:08:19;;;;;;;31.40;13.10;;;;;;;-128.00;-1.00;-1.00;18439;300;7504768;-32
2023/06/10 05:10:45;;;;;;;13.60;12.20;;;;;;;-128.00;-1.00;-1.00;18481;296;7505153;-37
2023/06/10 05:13:10;;;;;;;13.30;12.00;;;;;;;-128.00;-1.00;-1.00;18503;296;7504817;-37
2023/06/10 05:15:37;;;;;;;17.80;13.80;;;;;;;-128.00;-1.00;-1.00;18857;288;7505716;-37
2023/06/10 05:18:03;;;;;;;14.80;13.40;;;;;;;-128.00;-1.00;-1.00;18844;296;7505004;-36
2023/06/10 05:20:29;;;;;;;16.80;14.60;;;;;;;-128.00;-1.00;-1.00;18853;296;7505414;-33
2023/06/10 05:22:55;;;;;;;25.80;13.90;;;;;;;-128.00;-1.00;-1.00;18857;308;7504366;-36
2023/06/10 05:25:22;;;;;;;12.60;11.30;;;;;;;-128.00;-1.00;-1.00;18929;288;7505310;-34
2023/06/10 05:27:48;;;;;;;13.80;11.50;;;;;;;-128.00;-1.00;-1.00;18882;288;7505064;-37
2023/06/10 05:30:14;;;;;;;15.50;9.20;;;;;;;-128.00;-1.00;-1.00;18852;288;7505285;-33
2023/06/10 05:32:41;;;;;;;12.20;10.90;;;;;;;-128.00;-1.00;-1.00;18456;297;7504849;-35
2023/06/10 05:35:07;;;;;;;17.00;10.20;;;;;;;-128.00;-1.00;-1.00;18876;288;7504681;-36
2023/06/10 05:37:34;;;;;;;7.80;7.10;;;;;;;-128.00;-1.00;-1.00;18436;296;7505279;-32
2023/06/10 05:40:00;;;;;;;10.20;9.10;;;;;;;-128.00;-1.00;-1.00;18464;298;7506040;-32
2023/06/10 05:42:26;;;;;;;10.70;7.50;;;;;;;-128.00;-1.00;-1.00;18868;284;7505112;-32
2023/06/10 05:44:52;;;;;;;13.20;10.40;;;;;;;-128.00;-1.00;-1.00;18870;284;7506403;-36
2023/06/10 05:47:18;;;;;;;16.40;10.60;;;;;;;-128.00;-1.00;-1.00;18875;296;7504507;-35
2023/06/10 05:49:48;;;;;;;11.10;9.60;;;;;;;-128.00;-1.00;-1.00;18464;296;7503995;-32
2023/06/10 05:52:14;;;;;;;10.50;9.50;;;;;;;-128.00;-1.00;-1.00;18479;315;7504409;-32
2023/06/10 05:54:39;;;;;;;10.90;7.60;;;;;;;-128.00;-1.00;-1.00;18465;296;7504594;-35
2023/06/10 05:57:05;;;;;;;8.50;7.80;;;;;;;-128.00;-1.00;-1.00;18439;349;7504757;-32
2023/06/10 05:59:31;;;;;;;19.80;10.00;;;;;;;-128.00;-1.00;-1.00;18449;299;7505362;-32
2023/06/10 06:01:57;;;;;;;14.00;8.80;;;;;;;-128.00;-1.00;-1.00;18436;299;7504237;-32
2023/06/10 06:04:23;;;;;;;10.00;8.30;;;;;;;-128.00;-1.00;-1.00;18465;297;7505843;-35
2023/06/10 06:06:49;;;;;;;16.30;8.30;;;;;;;-128.00;-1.00;-1.00;18489;309;7504178;-35
2023/06/10 06:09:14;;;;;;;6.90;6.30;;;;;;;-128.00;-1.00;-1.00;18508;296;7504931;-35
2023/06/10 06:11:40;;;;;;;22.80;7.40;;;;;;;-128.00;-1.00;-1.00;18454;304;7505513;-31
2023/06/10 06:14:06;;;;;;;8.90;7.40;;;;;;;-128.00;-1.00;-1.00;18459;288;7506008;-31
2023/06/10 06:16:32;;;;;;;8.70;7.30;;;;;;;-128.00;-1.00;-1.00;18476;296;7506027;-31
2023/06/10 06:18:58;;;;;;;9.00;6.40;;;;;;;-128.00;-1.00;-1.00;18456;344;7506522;-36
2023/06/10 06:21:24;;;;;;;7.30;6.40;;;;;;;-128.00;-1.00;-1.00;18485;288;7504481;-32
2023/06/10 06:23:49;;;;;;;12.60;5.40;;;;;;;-128.00;-1.00;-1.00;18495;288;7507022;-32
2023/06/10 06:26:15;;;;;;;7.90;6.80;;;;;;;-128.00;-1.00;-1.00;18904;288;7504635;-32
2023/06/10 06:28:42;;;;;;;9.50;7.70;;;;;;;-128.00;-1.00;-1.00;18867;298;7504239;-32
2023/06/10 06:31:08;;;;;;;8.90;7.80;;;;;;;-128.00;-1.00;-1.00;18856;296;7504667;-31
2023/06/10 06:33:34;;;;;;;8.50;7.70;;;;;;;-128.00;-1.00;-1.00;18879;341;7505190;-34
2023/06/10 06:36:00;;;;;;;8.60;7.80;;;;;;;-128.00;-1.00;-1.00;18878;296;7504923;-33
2023/06/10 06:38:26;;;;;;;18.20;8.70;;;;;;;-128.00;-1.00;-1.00;18864;288;7505047;-32
2023/06/10 06:40:53;;;;;;;11.60;8.90;;;;;;;-128.00;-1.00;-1.00;18904;284;7504525;-32
2023/06/10 06:43:19;;;;;;;9.50;6.60;;;;;;;-128.00;-1.00;-1.00;18458;288;7505757;-32
2023/06/10 06:45:45;;;;;;;9.10;8.20;;;;;;;-128.00;-1.00;-1.00;18456;348;7504772;-36
2023/06/10 06:48:11;;;;;;;13.00;8.50;;;;;;;-128.00;-1.00;-1.00;18465;288;7505746;-33
2023/06/10 06:50:37;;;;;;;14.80;8.30;;;;;;;-128.00;-1.00;-1.00;18472;298;7504563;-35
2023/06/10 06:53:03;;;;;;;13.60;8.80;;;;;;;-128.00;-1.00;-1.00;18473;297;7506153;-32
2023/06/10 06:55:29;;;;;;;11.40;7.80;;;;;;;-128.00;-1.00;-1.00;18502;297;7505571;-35
2023/06/10 06:57:55;;;;;;;8.20;7.50;;;;;;;-128.00;-1.00;-1.00;18472;288;7506003;-35
2023/06/10 07:00:21;;;;;;;6.50;5.90;;;;;;;-128.00;-1.00;-1.00;18501;288;7506644;-35
2023/06/10 07:02:48;;;;;;;9.80;8.80;;;;;;;-128.00;-1.00;-1.00;18509;296;7505136;-32
2023/06/10 07:05:14;;;;;;;8.60;7.30;;;;;;;-128.00;-1.00;-1.00;18465;296;7505177;-31
2023/06/10 07:07:39;;;;;;;8.30;7.50;;;;;;;-128.00;-1.00;-1.00;18444;288;7504382;-31
2023/06/10 07:10:06;;;;;;;9.30;6.60;;;;;;;-128.00;-1.00;-1.00;18458;288;7504333;-35
2023/06/10 07:12:31;;;;;;;12.90;7.60;;;;;;;-128.00;-1.00;-1.00;18457;284;7505312;-32
2023/06/10 07:14:57;;;;;;;7.80;7.20;;;;;;;-128.00;-1.00;-1.00;18493;284;7505474;-32
2023/06/10 07:17:22;;;;;;;11.20;7.40;;;;;;;-128.00;-1.00;-1.00;18484;296;7504435;-32
2023/06/10 07:19:51;;;;;;;6.50;5.90;;;;;;;-128.00;-1.00;-1.00;18449;296;7504625;-35
2023/06/10 07:22:17;;;;;;;16.70;6.90;;;;;;;-128.00;-1.00;-1.00;18472;288;7504466;-35
2023/06/10 07:24:42;;;;;;;12.90;6.30;;;;;;;-128.00;-1.00;-1.00;18462;288;7504719;-35
2023/06/10 07:27:10;;;;;;;8.40;7.20;;;;;;;-128.00;-1.00;-1.00;18899;288;7504338;-35
2023/06/10 07:29:35;;;;;;;5.60;4.90;;;;;;;-128.00;-1.00;-1.00;18453;296;7505294;-32
2023/06/10 07:32:03;;;;;;;11.70;7.20;;;;;;;-128.00;-1.00;-1.00;18451;296;7505796;-35
2023/06/10 07:34:33;;;;;;;8.30;7.50;;;;;;;-128.00;-1.00;-1.00;18498;296;7505131;-32
2023/06/10 07:36:58;;;;;;;8.30;7.60;;;;;;;-128.00;-1.00;-1.00;18471;288;7505585;-37
2023/06/10 07:39:24;;;;;;;7.60;6.90;;;;;;;-128.00;-1.00;-1.00;18484;296;7505350;-36
2023/06/10 07:41:50;;;;;;;8.90;8.20;;;;;;;-128.00;-1.00;-1.00;18472;308;7505981;-32
2023/06/10 07:44:16;;;;;;;10.60;8.30;;;;;;;-128.00;-1.00;-1.00;18893;288;7504640;-35
2023/06/10 07:46:42;;;;;;;11.00;8.80;;;;;;;-128.00;-1.00;-1.00;18882;296;7504776;-36
2023/06/10 07:49:08;;;;;;;9.40;8.10;;;;;;;-128.00;-1.00;-1.00;18876;288;7504654;-36
2023/06/10 07:51:34;;;;;;;8.80;8.10;;;;;;;-128.00;-1.00;-1.00;18875;296;7504794;-36
2023/06/10 07:54:01;;;;;;;9.90;8.70;;;;;;;-128.00;-1.00;-1.00;18855;296;7505308;-35
2023/06/10 07:56:27;;;;;;;9.00;8.20;;;;;;;-128.00;-1.00;-1.00;18876;348;7504977;-35
2023/06/10 07:58:53;;;;;;;8.20;7.30;;;;;;;-128.00;-1.00;-1.00;18871;304;7505084;-34
2023/06/10 08:01:20;;;;;;;8.60;7.80;;;;;;;-128.00;-1.00;-1.00;18837;320;7504573;-32
2023/06/10 08:03:46;;;;;;;19.30;9.40;;;;;;;-128.00;-1.00;-1.00;18887;288;7504575;-32
2023/06/10 08:06:12;;;;;;;7.80;7.10;;;;;;;-128.00;-1.00;-1.00;18453;321;7506706;-32
2023/06/10 08:08:43;;;;;;;9.80;8.90;;;;;;;-128.00;-1.00;-1.00;18451;308;7505984;-33
2023/06/10 08:11:11;;;;;;;7.60;5.40;;;;;;;-128.00;-1.00;-1.00;18477;341;7505430;-32
2023/06/10 08:13:37;;;;;;;10.60;7.40;;;;;;;-128.00;-1.00;-1.00;18469;296;7505763;-31
2023/06/10 08:16:03;;;;;;;7.80;7.10;;;;;;;-128.00;-1.00;-1.00;18438;296;7505025;-35
2023/06/10 08:18:28;;;;;;;9.30;8.50;;;;;;;-128.00;-1.00;-1.00;18480;296;7506260;-31
2023/06/10 08:20:55;;;;;;;13.30;7.40;;;;;;;-128.00;-1.00;-1.00;18488;288;7506024;-35
2023/06/10 08:23:20;;;;;;;15.90;8.60;;;;;;;-128.00;-1.00;-1.00;18464;288;7506119;-32
2023/06/10 08:25:46;;;;;;;10.80;7.90;;;;;;;-128.00;-1.00;-1.00;18477;323;7506207;-36
2023/06/10 08:28:12;;;;;;;7.30;6.60;;;;;;;-128.00;-1.00;-1.00;18480;284;7506545;-36
2023/06/10 08:30:38;;;;;;;6.90;6.30;;;;;;;-128.00;-1.00;-1.00;18487;296;7505321;-35
2023/06/10 08:33:03;;;;;;;5.30;4.80;;;;;;;-128.00;-1.00;-1.00;18459;296;7504719;-36
2023/06/10 08:35:30;;;;;;;4.00;3.70;;;;;;;-128.00;-1.00;-1.00;18465;288;7504945;-31
2023/06/10 08:37:56;;;;;;;6.00;5.20;;;;;;;-128.00;-1.00;-1.00;18882;288;7505179;-32
2023/06/10 08:40:22;;;;;;;5.90;5.20;;;;;;;-128.00;-1.00;-1.00;18883;296;7505127;-35
2023/06/10 08:42:52;;;;;;;6.90;6.20;;;;;;;-128.00;-1.00;-1.00;18864;332;7505168;-32
2023/06/10 08:45:18;;;;;;;8.30;4.70;;;;;;;-128.00;-1.00;-1.00;18484;284;7504379;-35
2023/06/10 08:47:46;;;;;;;27.60;18.60;;;;;;;-128.00;-1.00;-1.00;18488;288;7504926;-32
2023/06/10 08:50:11;;;;;;;24.90;20.10;;;;;;;-128.00;-1.00;-1.00;18510;288;7504967;-32
2023/06/10 08:52:38;;;;;;;14.10;12.70;;;;;;;-128.00;-1.00;-1.00;18455;320;7505910;-36
2023/06/10 08:55:12;;;;;;;3.80;3.50;;;;;;;-128.00;-1.00;-1.00;18458;288;7504663;-33
2023/06/10 08:57:37;;;;;;;4.00;3.30;;;;;;;-128.00;-1.00;-1.00;18473;284;7504702;-36
2023/06/10 09:00:04;;;;;;;3.70;3.40;;;;;;;-128.00;-1.00;-1.00;18459;284;7504600;-35
2023/06/10 09:02:30;;;;;;;3.90;3.50;;;;;;;-128.00;-1.00;-1.00;18453;296;7504686;-35
2023/06/10 09:04:56;;;;;;;11.70;3.70;;;;;;;-128.00;-1.00;-1.00;18457;296;7506099;-35
2023/06/10 09:07:22;;;;;;;4.10;3.80;;;;;;;-128.00;-1.00;-1.00;18459;337;7506679;-33
2023/06/10 09:09:48;;;;;;;6.50;3.50;;;;;;;-128.00;-1.00;-1.00;18869;296;7505302;-36
2023/06/10 09:12:14;;;;;;;5.60;4.00;;;;;;;-128.00;-1.00;-1.00;18479;284;7506826;-32
2023/06/10 09:14:41;;;;;;;3.80;3.50;;;;;;;-128.00;-1.00;-1.00;18475;296;7505725;-36
2023/06/10 09:17:07;;;;;;;4.20;3.90;;;;;;;-128.00;-1.00;-1.00;18494;296;7504538;-32
2023/06/10 09:19:33;;;;;;;7.40;4.40;;;;;;;-128.00;-1.00;-1.00;18441;349;7504375;-32
2023/06/10 09:21:59;;;;;;;10.20;3.90;;;;;;;-128.00;-1.00;-1.00;17907;296;7505266;-36
2023/06/10 09:24:25;;;;;;;4.10;3.80;;;;;;;-128.00;-1.00;-1.00;18487;296;7506258;-35
2023/06/10 09:26:51;;;;;;;8.00;3.80;;;;;;;-128.00;-1.00;-1.00;18485;341;7504667;-36
2023/06/10 09:29:17;;;;;;;9.70;4.20;;;;;;;-128.00;-1.00;-1.00;18486;296;7504507;-33
2023/06/10 09:31:42;;;;;;;3.70;3.40;;;;;;;-128.00;-1.00;-1.00;18476;348;7505170;-36
2023/06/10 09:34:13;;;;;;;4.60;4.20;;;;;;;-128.00;-1.00;-1.00;18884;296;7504684;-34
2023/06/10 09:36:39;;;;;;;13.10;5.10;;;;;;;-128.00;-1.00;-1.00;18483;296;7506612;-31
2023/06/10 09:39:05;;;;;;;4.60;3.70;;;;;;;-128.00;-1.00;-1.00;18473;288;7504448;-32
2023/06/10 09:41:37;;;;;;;5.60;5.10;;;;;;;-128.00;-1.00;-1.00;18492;288;7504643;-35
2023/06/10 09:44:14;;;;;;;3.50;3.20;;;;;;;-128.00;-1.00;-1.00;18488;284;7505153;-35
2023/06/10 09:46:40;;;;;;;4.90;4.50;;;;;;;-128.00;-1.00;-1.00;18461;296;7504568;-35
2023/06/10 09:49:06;;;;;;;5.30;4.80;;;;;;;-128.00;-1.00;-1.00;18473;296;7506392;-32
2023/06/10 09:51:31;;;;;;;4.90;4.50;;;;;;;-128.00;-1.00;-1.00;18474;296;7504412;-32
2023/06/10 09:53:58;;;;;;;7.90;4.70;;;;;;;-128.00;-1.00;-1.00;18474;288;7504859;-35
2023/06/10 09:56:33;;;;;;;4.00;3.70;;;;;;;-128.00;-1.00;-1.00;18469;297;7505040;-32
2023/06/10 09:58:58;;;;;;;6.20;4.80;;;;;;;-128.00;-1.00;-1.00;18491;338;7506261;-31
2023/06/10 10:01:24;;;;;;;5.80;5.20;;;;;;;-128.00;-1.00;-1.00;18510;296;7507019;-35
2023/06/10 10:03:50;;;;;;;5.70;5.00;;;;;;;-128.00;-1.00;-1.00;18466;337;7504738;-35
2023/06/10 10:06:17;;;;;;;6.20;5.70;;;;;;;-128.00;-1.00;-1.00;18482;296;7504576;-35
2023/06/10 10:08:44;;;;;;;7.30;5.80;;;;;;;-128.00;-1.00;-1.00;18473;296;7504148;-35
2023/06/10 10:11:10;;;;;;;7.30;6.10;;;;;;;-128.00;-1.00;-1.00;18497;296;7505052;-32
2023/06/10 10:13:36;;;;;;;7.80;6.60;;;;;;;-128.00;-1.00;-1.00;18481;296;7504782;-32
2023/06/10 10:16:04;;;;;;;4.30;3.90;;;;;;;-128.00;-1.00;-1.00;18498;296;7504450;-32
2023/06/10 10:18:30;;;;;;;5.20;4.90;;;;;;;-128.00;-1.00;-1.00;18464;288;7505908;-32
2023/06/10 10:20:57;;;;;;;8.50;5.00;;;;;;;-128.00;-1.00;-1.00;18488;316;7504527;-32
2023/06/10 10:23:26;;;;;;;8.50;5.70;;;;;;;-128.00;-1.00;-1.00;18449;284;7505052;-36
2023/06/10 10:25:53;;;;;;;6.50;4.90;;;;;;;-128.00;-1.00;-1.00;18461;325;7504515;-36
2023/06/10 10:28:20;;;;;;;7.60;7.00;;;;;;;-128.00;-1.00;-1.00;18475;296;7504698;-36
2023/06/10 10:30:48;;;;;;;7.20;6.30;;;;;;;-128.00;-1.00;-1.00;18493;296;7505007;-33
2023/06/10 10:33:20;;;;;;;12.40;6.40;;;;;;;-128.00;-1.00;-1.00;18473;320;7504624;-33
2023/06/10 10:35:45;;;;;;;9.30;6.80;;;;;;;-128.00;-1.00;-1.00;18463;296;7504381;-36
2023/06/10 10:38:12;;;;;;;6.70;6.10;;;;;;;-128.00;-1.00;-1.00;18490;296;7505181;-36
2023/06/10 10:40:38;;;;;;;7.50;5.80;;;;;;;-128.00;-1.00;-1.00;18875;296;7507343;-33
2023/06/10 10:43:04;;;;;;;7.10;6.50;;;;;;;-128.00;-1.00;-1.00;18893;288;7504419;-36
2023/06/10 10:45:31;;;;;;;7.60;5.50;;;;;;;-128.00;-1.00;-1.00;18876;296;7505133;-32
2023/06/10 10:47:57;;;;;;;6.20;5.70;;;;;;;-128.00;-1.00;-1.00;18872;288;7504461;-33
2023/06/10 10:50:23;;;;;;;5.60;5.10;;;;;;;-128.00;-1.00;-1.00;18869;296;7504459;-32
2023/06/10 10:53:02;;;;;;;6.30;5.80;;;;;;;-128.00;-1.00;-1.00;18866;296;7504638;-32
2023/06/10 10:55:28;;;;;;;6.50;5.90;;;;;;;-128.00;-1.00;-1.00;18486;296;7505006;-33
2023/06/10 10:57:58;;;;;;;10.80;6.70;;;;;;;-128.00;-1.00;-1.00;18509;296;7504936;-33
2023/06/10 11:00:31;;;;;;;6.80;6.30;;;;;;;-128.00;-1.00;-1.00;18462;296;7506209;-32
2023/06/10 11:02:58;;;;;;;7.50;6.70;;;;;;;-128.00;-1.00;-1.00;18462;285;7504797;-35
2023/06/10 11:05:37;;;;;;;7.30;6.70;;;;;;;-128.00;-1.00;-1.00;18499;308;7504619;-36
2023/06/10 11:08:03;;;;;;;7.00;6.40;;;;;;;-128.00;-1.00;-1.00;18465;296;7504260;-35
2023/06/10 11:10:30;;;;;;;21.60;6.60;;;;;;;-128.00;-1.00;-1.00;18475;296;7506077;-33
2023/06/10 11:12:57;;;;;;;8.20;7.50;;;;;;;-128.00;-1.00;-1.00;18486;288;7505859;-35
2023/06/10 11:15:25;;;;;;;9.10;6.50;;;;;;;-128.00;-1.00;-1.00;18468;296;7504506;-32
2023/06/10 11:18:15;;;;;;;6.30;5.30;;;;;;;-128.00;-1.00;-1.00;18466;288;7506178;-33
2023/06/10 11:20:55;;;;;;;7.90;7.10;;;;;;;-128.00;-1.00;-1.00;18474;308;7504712;-33
2023/06/10 11:23:38;;;;;;;19.60;6.70;;;;;;;-128.00;-1.00;-1.00;18475;289;7504840;-36
2023/06/10 11:26:31;;;;;;;6.60;5.70;;;;;;;-128.00;-1.00;-1.00;18484;296;7504675;-36
2023/06/10 11:29:07;;;;;;;5.80;5.40;;;;;;;-128.00;-1.00;-1.00;18487;296;7504467;-33
2023/06/10 11:31:47;;;;;;;5.90;5.30;;;;;;;-128.00;-1.00;-1.00;18473;296;7506020;-33
2023/06/10 11:34:13;;;;;;;6.10;5.50;;;;;;;-128.00;-1.00;-1.00;18473;296;7505871;-36
2023/06/10 11:36:40;;;;;;;11.30;5.10;;;;;;;-128.00;-1.00;-1.00;18462;288;7504493;-32
2023/06/10 11:39:06;;;;;;;6.50;6.00;;;;;;;-128.00;-1.00;-1.00;18509;296;7505978;-32
2023/06/10 11:41:33;;;;;;;7.70;7.00;;;;;;;-128.00;-1.00;-1.00;18455;296;7505093;-36
2023/06/10 11:44:15;;;;;;;8.90;5.70;;;;;;;-128.00;-1.00;-1.00;18468;296;7505557;-36
2023/06/10 11:46:42;;;;;;;4.80;4.40;;;;;;;-128.00;-1.00;-1.00;18447;284;7506086;-35
2023/06/10 11:49:08;;;;;;;10.70;6.50;;;;;;;-128.00;-1.00;-1.00;18448;288;7504431;-33
2023/06/10 11:51:35;;;;;;;6.10;5.50;;;;;;;-128.00;-1.00;-1.00;18482;348;7504672;-32
2023/06/10 11:54:01;;;;;;;5.00;4.30;;;;;;;-128.00;-1.00;-1.00;18434;296;7506852;-32
2023/06/10 11:56:27;;;;;;;6.80;5.00;;;;;;;-128.00;-1.00;-1.00;18476;288;7504325;-36
2023/06/10 11:59:04;;;;;;;5.30;4.50;;;;;;;-128.00;-1.00;-1.00;18500;288;7504261;-32
2023/06/10 12:01:30;;;;;;;4.90;4.50;;;;;;;-128.00;-1.00;-1.00;18482;296;7505741;-35
2023/06/10 12:04:00;;;;;;;6.10;5.50;;;;;;;-128.00;-1.00;-1.00;18468;296;7505377;-32